Time;durP1;ratioP1;P1;durP2;ratioP2;P2;SDS_P1;SDS_P2;PMS_P1;PMS_P2;Temp;Humidity;BMP_temperature;BMP_pressure;BME280_temperature;BME280_humidity;BME280_pressure;Samples;Min_cycle;Max_cycle;Signal;HPM_P1;HPM_P2
2021/08/09 00:00:46;;;;;;;3.67;2.95;;;;;;;27.66;36.13;94059.31;4988061;28;20045;-76
2021/08/09 00:03:12;;;;;;;3.90;3.08;;;;;;;27.56;36.06;94043.84;4982504;28;20049;-75
2021/08/09 00:05:38;;;;;;;4.75;3.40;;;;;;;27.63;36.74;94062.81;4988858;28;20039;-75
2021/08/09 00:08:04;;;;;;;7.03;3.30;;;;;;;27.38;36.25;94019.38;4983254;28;20041;-75
2021/08/09 00:10:30;;;;;;;3.78;3.13;;;;;;;27.60;36.56;94063.63;4985155;28;20030;-76
2021/08/09 00:12:56;;;;;;;3.60;3.22;;;;;;;27.20;36.38;94018.63;4986452;28;20034;-76
2021/08/09 00:15:22;;;;;;;4.38;3.20;;;;;;;27.20;37.27;94018.63;4987872;28;20571;-76
2021/08/09 00:17:47;;;;;;;4.47;3.03;;;;;;;27.49;36.96;94079.91;4984381;28;20089;-75
2021/08/09 00:20:14;;;;;;;4.28;3.55;;;;;;;27.47;37.09;94065.13;4988119;28;20147;-75
2021/08/09 00:22:39;;;;;;;5.28;3.20;;;;;;;27.47;36.65;94068.63;4984447;28;20488;-76
2021/08/09 00:25:06;;;;;;;4.50;2.67;;;;;;;27.49;36.39;94065.56;4985207;28;20040;-76
2021/08/09 00:27:36;;;;;;;3.42;2.78;;;;;;;27.48;36.98;94067.47;4988298;28;20046;-75
2021/08/09 00:30:01;;;;;;;5.90;2.95;;;;;;;27.21;36.74;94031.03;4986655;28;20053;-76
2021/08/09 00:32:26;;;;;;;5.00;3.00;;;;;;;27.41;36.76;94066.69;4989061;28;20034;-76
2021/08/09 00:34:52;;;;;;;3.92;3.38;;;;;;;27.44;36.37;94068.63;4987408;28;20033;-76
2021/08/09 00:37:17;;;;;;;4.38;2.85;;;;;;;27.52;36.27;94062.06;4986522;28;20134;-76
2021/08/09 00:39:43;;;;;;;4.43;2.90;;;;;;;27.56;36.03;94060.13;4987144;28;20374;-75
2021/08/09 00:42:08;;;;;;;3.05;2.85;;;;;;;27.51;36.58;94055.84;4983264;28;20677;-76
2021/08/09 00:44:37;;;;;;;3.45;2.75;;;;;;;27.41;36.52;94039.56;4983948;28;20041;-76
2021/08/09 00:47:03;;;;;;;3.95;3.15;;;;;;;27.01;36.46;93995.38;4980027;28;20165;-77
2021/08/09 00:49:29;;;;;;;3.30;2.83;;;;;;;27.49;36.44;94054.69;4987294;28;20123;-76
2021/08/09 00:51:56;;;;;;;4.32;3.00;;;;;;;27.49;36.70;94057.41;4982954;28;20674;-76
2021/08/09 00:54:23;;;;;;;4.82;2.97;;;;;;;27.47;36.57;94051.56;4984716;28;20081;-76
2021/08/09 00:56:48;;;;;;;3.17;2.85;;;;;;;27.41;36.87;94053.13;4985981;28;20046;-76
2021/08/09 00:59:14;;;;;;;3.47;2.83;;;;;;;27.40;37.56;94054.28;4983500;28;20062;-76
2021/08/09 01:01:40;;;;;;;4.35;2.97;;;;;;;27.23;37.30;94046.91;4987034;28;20022;-76
2021/08/09 01:04:05;;;;;;;4.72;2.78;;;;;;;27.28;37.15;94052.72;4987078;28;20061;-76
2021/08/09 01:06:31;;;;;;;5.43;3.58;;;;;;;27.26;37.33;94055.06;4986321;28;20105;-76
2021/08/09 01:09:14;;;;;;;4.32;3.00;;;;;;;27.25;37.22;94050.81;4982934;28;21319;-76
2021/08/09 01:11:58;;;;;;;4.30;3.33;;;;;;;27.17;36.94;94050.00;4986901;28;20257;-77
2021/08/09 01:14:50;;;;;;;3.72;3.42;;;;;;;27.21;36.80;94060.88;4985661;28;20041;-77
2021/08/09 01:17:18;;;;;;;3.40;3.00;;;;;;;26.95;36.59;94021.34;4987359;28;20042;-76
2021/08/09 01:20:01;;;;;;;4.75;3.03;;;;;;;27.09;37.26;94064.75;4985261;28;20028;-76
2021/08/09 01:22:42;;;;;;;4.00;2.72;;;;;;;27.08;37.55;94071.31;4987753;28;20523;-76
2021/08/09 01:25:23;;;;;;;6.60;3.30;;;;;;;26.58;37.41;93993.75;4986165;28;20393;-78
2021/08/09 01:27:51;;;;;;;3.22;2.45;;;;;;;27.07;37.89;94058.91;4981741;28;20042;-76
2021/08/09 01:30:19;;;;;;;3.13;2.83;;;;;;;27.03;36.89;94066.28;4986313;28;20041;-76
2021/08/09 01:32:46;;;;;;;5.18;3.80;;;;;;;26.94;37.09;94054.25;4987688;28;20038;-77
2021/08/09 01:35:14;;;;;;;2.88;2.58;;;;;;;26.94;37.10;94048.84;4986900;28;20041;-74
2021/08/09 01:37:44;;;;;;;4.45;2.92;;;;;;;26.99;36.67;94062.78;4990900;28;20030;-75
2021/08/09 01:40:10;;;;;;;4.10;3.22;;;;;;;26.70;37.37;94005.00;4989027;28;20034;-76
2021/08/09 01:42:43;;;;;;;3.60;2.67;;;;;;;27.09;37.16;94056.59;4989303;28;20042;-75
2021/08/09 01:45:09;;;;;;;5.22;2.85;;;;;;;27.07;36.80;94058.91;4987927;28;20077;-75
2021/08/09 01:47:35;;;;;;;4.20;3.78;;;;;;;26.81;36.94;94018.59;4985061;28;20108;-75
2021/08/09 01:50:04;;;;;;;5.88;3.42;;;;;;;27.06;37.33;94070.94;4987740;28;20034;-76
2021/08/09 01:52:30;;;;;;;3.30;3.00;;;;;;;27.00;37.21;94075.19;4988139;28;20026;-75
2021/08/09 01:54:57;;;;;;;4.00;2.92;;;;;;;27.00;37.08;94083.34;4989116;28;20073;-76
2021/08/09 01:57:26;;;;;;;3.90;2.95;;;;;;;26.86;37.86;94069.75;4987993;28;20440;-75
2021/08/09 01:59:51;;;;;;;3.47;2.83;;;;;;;26.87;37.55;94073.25;4990084;28;20034;-75
2021/08/09 02:02:28;;;;;;;4.40;2.88;;;;;;;26.81;37.66;94078.22;4988859;28;20080;-75
2021/08/09 02:04:53;;;;;;;3.50;2.78;;;;;;;26.69;37.70;94059.59;4987687;28;21363;-75
2021/08/09 02:07:19;;;;;;;3.75;3.35;;;;;;;26.83;37.52;94073.19;4985868;28;20041;-75
2021/08/09 02:09:45;;;;;;;5.95;3.97;;;;;;;26.78;37.46;94068.13;4990242;28;20099;-75
2021/08/09 02:12:11;;;;;;;4.13;3.50;;;;;;;26.88;37.58;94082.94;4988665;28;20400;-78
2021/08/09 02:14:45;;;;;;;5.13;3.20;;;;;;;26.85;38.07;94079.00;4990811;28;20137;-75
2021/08/09 02:17:20;;;;;;;7.57;3.53;;;;;;;26.68;37.83;94085.19;4986972;28;20043;-76
2021/08/09 02:19:51;;;;;;;3.45;3.10;;;;;;;26.36;38.00;94047.13;4987604;28;20259;-75
2021/08/09 02:22:26;;;;;;;3.80;3.30;;;;;;;26.70;38.10;94090.97;4987667;28;20030;-76
2021/08/09 02:24:58;;;;;;;4.05;3.40;;;;;;;26.77;38.00;94088.31;4988974;28;20042;-75
2021/08/09 02:27:28;;;;;;;3.85;3.42;;;;;;;26.82;38.06;94090.63;4999202;28;20046;-75
2021/08/09 02:29:55;;;;;;;3.58;2.85;;;;;;;26.71;37.88;94100.66;4989208;28;20041;-75
2021/08/09 02:32:25;;;;;;;7.82;3.63;;;;;;;26.74;38.03;94105.31;4984865;28;20060;-75
2021/08/09 02:34:53;;;;;;;5.75;3.30;;;;;;;26.72;37.63;94094.88;4985777;28;20022;-78
2021/08/09 02:37:20;;;;;;;5.53;3.67;;;;;;;26.74;37.50;94099.88;4987212;28;20034;-75
2021/08/09 02:39:46;;;;;;;5.35;3.63;;;;;;;26.63;38.13;94099.84;4987023;28;20424;-76
2021/08/09 02:42:11;;;;;;;4.00;2.95;;;;;;;26.67;37.80;94097.97;4983872;28;20034;-76
2021/08/09 02:44:38;;;;;;;5.15;3.47;;;;;;;26.53;38.69;94105.25;4984949;28;20034;-76
2021/08/09 02:47:05;;;;;;;6.25;3.05;;;;;;;26.55;38.28;94100.22;4986137;28;20119;-75
2021/08/09 02:49:31;;;;;;;3.45;3.15;;;;;;;26.44;38.51;94096.72;4985074;28;20022;-76
2021/08/09 02:51:57;;;;;;;3.72;3.35;;;;;;;26.43;38.69;94101.34;4986134;28;20050;-76
2021/08/09 02:54:23;;;;;;;4.15;3.13;;;;;;;26.46;38.50;94106.00;4987706;28;20038;-76
2021/08/09 02:56:50;;;;;;;3.47;2.83;;;;;;;26.43;38.80;94112.19;4986300;28;20044;-75
2021/08/09 02:59:16;;;;;;;4.38;3.13;;;;;;;26.44;39.01;94112.97;4984418;28;20038;-76
2021/08/09 03:01:42;;;;;;;3.63;3.25;;;;;;;26.37;38.81;94118.34;4989463;28;20387;-76
2021/08/09 03:04:13;;;;;;;6.80;3.88;;;;;;;26.23;39.29;94102.81;4989126;28;20030;-75
2021/08/09 03:06:39;;;;;;;4.43;3.28;;;;;;;26.16;39.76;94114.34;4986962;28;20038;-76
2021/08/09 03:09:07;;;;;;;4.13;3.20;;;;;;;26.16;39.13;94114.34;4988532;28;20475;-75
2021/08/09 03:11:34;;;;;;;4.30;3.15;;;;;;;26.09;39.75;94119.75;4985526;28;20876;-76
2021/08/09 03:14:00;;;;;;;5.22;3.28;;;;;;;26.07;39.49;94127.44;4987814;28;20674;-75
2021/08/09 03:16:25;;;;;;;6.15;3.60;;;;;;;26.06;39.55;94128.59;4990759;28;20026;-75
2021/08/09 03:18:51;;;;;;;3.42;2.92;;;;;;;25.98;39.80;94129.72;4989664;28;20134;-76
2021/08/09 03:21:16;;;;;;;7.38;4.53;;;;;;;25.99;39.74;94131.28;4985585;28;20097;-78
2021/08/09 03:23:42;;;;;;;5.80;3.33;;;;;;;26.07;39.48;94127.44;4982940;28;20089;-76
2021/08/09 03:26:07;;;;;;;3.45;3.10;;;;;;;26.10;39.55;94126.69;4983150;28;20454;-76
2021/08/09 03:28:32;;;;;;;5.07;3.47;;;;;;;25.95;39.65;94116.91;4983708;28;20018;-77
2021/08/09 03:30:59;;;;;;;3.72;3.35;;;;;;;25.95;39.78;94122.34;4982553;28;20030;-76
2021/08/09 03:33:24;;;;;;;4.57;3.55;;;;;;;25.92;39.82;94130.44;4984544;28;20042;-76
2021/08/09 03:35:50;;;;;;;4.47;3.80;;;;;;;25.87;40.26;94128.88;4985744;28;20031;-76
2021/08/09 03:38:15;;;;;;;6.28;3.55;;;;;;;25.89;40.00;94134.69;4985457;28;20046;-76
2021/08/09 03:40:40;;;;;;;3.67;3.33;;;;;;;25.85;40.12;94129.25;4991847;28;20047;-76
2021/08/09 03:43:06;;;;;;;5.18;3.47;;;;;;;25.84;39.97;94135.03;4988852;28;20053;-78
2021/08/09 03:45:32;;;;;;;5.03;3.42;;;;;;;25.90;39.50;94133.53;4983142;28;20364;-76
2021/08/09 03:47:58;;;;;;;4.63;3.58;;;;;;;25.93;40.10;94132.00;4990659;28;20091;-76
2021/08/09 03:50:23;;;;;;;3.88;3.17;;;;;;;25.93;40.66;94135.50;4981629;28;20034;-76
2021/08/09 03:52:53;;;;;;;4.45;3.65;;;;;;;25.90;40.26;94136.25;4983220;28;20044;-77
2021/08/09 03:55:19;;;;;;;6.38;3.33;;;;;;;25.83;40.54;94131.56;4985781;28;20472;-76
2021/08/09 03:57:45;;;;;;;4.00;3.60;;;;;;;25.88;40.16;94120.38;4987666;28;20038;-76
2021/08/09 04:00:11;;;;;;;6.78;3.63;;;;;;;25.90;40.63;94138.97;4984831;28;20733;-76
2021/08/09 04:02:37;;;;;;;3.90;3.17;;;;;;;25.73;40.34;94105.19;4983469;28;20046;-75
2021/08/09 04:05:04;;;;;;;10.13;4.22;;;;;;;25.99;40.45;94136.69;4983136;28;20049;-75
2021/08/09 04:07:30;;;;;;;5.82;3.42;;;;;;;26.03;40.51;94147.53;4986319;28;20499;-76
2021/08/09 04:09:55;;;;;;;5.00;3.63;;;;;;;26.05;41.35;94147.94;4979616;28;20525;-75
2021/08/09 04:12:21;;;;;;;8.55;4.43;;;;;;;26.05;42.05;94147.94;4984576;28;20068;-75
2021/08/09 04:14:48;;;;;;;5.90;3.97;;;;;;;25.92;41.26;94114.19;4987159;28;20042;-76
2021/08/09 04:17:14;;;;;;;7.60;3.28;;;;;;;26.15;41.93;94145.28;4989078;28;20188;-75
2021/08/09 04:19:39;;;;;;;6.15;3.35;;;;;;;26.16;41.76;94140.66;4986852;28;20041;-75
2021/08/09 04:22:05;;;;;;;6.82;3.92;;;;;;;26.28;40.74;94137.66;4983973;28;20021;-76
2021/08/09 04:24:30;;;;;;;5.78;3.85;;;;;;;26.31;40.23;94131.47;4985318;28;20030;-76
2021/08/09 04:26:55;;;;;;;8.68;4.30;;;;;;;26.11;41.37;94090.31;4982593;28;20383;-75
2021/08/09 04:29:21;;;;;;;6.13;3.55;;;;;;;26.56;40.36;94142.44;4987104;28;20034;-75
2021/08/09 04:31:46;;;;;;;9.38;3.92;;;;;;;26.71;40.20;94144.03;4984143;28;20675;-75
2021/08/09 04:34:12;;;;;;;7.05;3.72;;;;;;;26.80;40.05;94141.75;4983660;28;20065;-76
2021/08/09 04:36:37;;;;;;;6.35;4.00;;;;;;;26.82;40.54;94133.25;4982341;28;20053;-75
2021/08/09 04:39:03;;;;;;;4.13;3.60;;;;;;;26.61;40.31;94112.25;4986366;28;20523;-75
2021/08/09 04:41:28;;;;;;;8.35;3.53;;;;;;;26.94;38.32;94130.19;4982433;28;20054;-75
2021/08/09 04:43:53;;;;;;;5.43;3.72;;;;;;;27.11;39.05;94151.19;4985128;28;20144;-75
2021/08/09 04:46:19;;;;;;;8.57;3.72;;;;;;;27.23;38.49;94155.44;4987831;28;20034;-76
2021/08/09 04:48:44;;;;;;;4.47;3.13;;;;;;;27.29;39.02;94162.06;4986176;28;20030;-75
2021/08/09 04:51:10;;;;;;;8.85;5.20;;;;;;;27.13;38.31;94122.50;4981755;28;20080;-76
2021/08/09 04:53:35;;;;;;;4.40;4.00;;;;;;;27.36;37.66;94137.66;4983118;28;20045;-76
2021/08/09 04:56:01;;;;;;;5.82;3.75;;;;;;;27.67;38.10;94174.91;4983086;28;20512;-76
2021/08/09 04:58:26;;;;;;;11.02;4.97;;;;;;;27.65;37.83;94174.53;4987522;28;20069;-76
2021/08/09 05:00:52;;;;;;;7.55;4.78;;;;;;;27.55;38.12;94170.66;4987942;28;20187;-75
2021/08/09 05:03:18;;;;;;;8.38;5.25;;;;;;;27.71;37.81;94169.50;4985869;28;20547;-75
2021/08/09 05:05:45;;;;;;;9.80;4.47;;;;;;;27.65;37.61;94152.03;4988166;28;20070;-76
2021/08/09 05:08:11;;;;;;;8.65;4.85;;;;;;;27.55;37.35;94153.59;4988348;28;20512;-76
2021/08/09 05:10:36;;;;;;;7.22;4.47;;;;;;;27.86;36.82;94190.81;4990836;28;20030;-75
2021/08/09 05:13:02;;;;;;;9.10;4.40;;;;;;;27.81;37.31;94188.50;4989420;28;20442;-76
2021/08/09 05:15:30;;;;;;;6.72;4.82;;;;;;;27.62;37.00;94156.28;4990192;28;20503;-76
2021/08/09 05:17:55;;;;;;;8.32;4.50;;;;;;;27.91;37.34;94189.66;4987162;28;20101;-76
2021/08/09 05:20:21;;;;;;;7.55;4.32;;;;;;;27.88;37.90;94180.34;4991219;28;20480;-75
2021/08/09 05:22:46;;;;;;;7.72;4.70;;;;;;;27.76;38.06;94175.31;4987797;28;20550;-76
2021/08/09 05:25:11;;;;;;;11.43;4.38;;;;;;;27.82;38.37;94190.06;4989659;28;20057;-75
2021/08/09 05:27:38;;;;;;;10.45;4.43;;;;;;;27.84;37.54;94179.59;4989081;28;20115;-76
2021/08/09 05:30:04;;;;;;;9.77;5.53;;;;;;;28.13;36.89;94188.53;4985129;28;20026;-75
2021/08/09 05:32:30;;;;;;;11.95;5.95;;;;;;;28.22;36.76;94201.69;4989434;28;20523;-76
2021/08/09 05:34:58;;;;;;;6.43;4.32;;;;;;;28.28;36.08;94189.28;4989698;28;20030;-76
2021/08/09 05:37:23;;;;;;;11.98;4.93;;;;;;;28.05;36.40;94164.44;4990583;28;20097;-76
2021/08/09 05:39:49;;;;;;;7.45;4.28;;;;;;;28.10;37.45;94164.06;4987479;28;20121;-76
2021/08/09 05:42:14;;;;;;;9.40;5.22;;;;;;;28.12;36.68;94162.50;4987905;28;20042;-75
2021/08/09 05:44:39;;;;;;;11.73;5.13;;;;;;;28.34;36.58;94198.59;4988239;28;20142;-76
2021/08/09 05:47:05;;;;;;;9.75;4.80;;;;;;;28.18;36.82;94200.94;4989499;28;20142;-78
2021/08/09 05:49:30;;;;;;;8.57;4.88;;;;;;;28.27;36.62;94204.81;4992650;28;20440;-76
2021/08/09 05:51:56;;;;;;;7.63;5.32;;;;;;;28.22;36.98;94201.69;4988318;28;20046;-76
2021/08/09 05:54:21;;;;;;;13.75;5.78;;;;;;;28.01;36.98;94173.34;4987453;28;20073;-77
2021/08/09 05:56:46;;;;;;;9.50;5.93;;;;;;;28.16;36.74;94193.16;4989628;28;20100;-76
2021/08/09 05:59:12;;;;;;;9.73;5.40;;;;;;;28.02;37.10;94139.59;4986509;28;20034;-77
2021/08/09 06:01:37;;;;;;;8.50;5.40;;;;;;;28.59;36.76;94201.25;4992184;28;20068;-77
2021/08/09 06:04:03;;;;;;;11.48;5.47;;;;;;;28.62;36.44;94198.53;4989505;28;20048;-76
2021/08/09 06:06:28;;;;;;;10.20;5.57;;;;;;;28.35;36.52;94156.63;4982839;28;20804;-76
2021/08/09 06:08:53;;;;;;;7.68;4.72;;;;;;;28.56;36.32;94189.22;4989002;28;20661;-76
2021/08/09 06:11:21;;;;;;;11.07;5.22;;;;;;;28.61;36.30;94191.53;4986520;28;20160;-76
2021/08/09 06:13:47;;;;;;;9.40;5.03;;;;;;;28.58;36.32;94197.75;4987918;28;20029;-75
2021/08/09 06:16:12;;;;;;;8.05;4.60;;;;;;;28.78;36.25;94189.97;4987262;28;20699;-75
2021/08/09 06:18:37;;;;;;;10.98;5.18;;;;;;;28.89;36.14;94189.91;4986501;28;20405;-75
2021/08/09 06:21:04;;;;;;;13.98;5.68;;;;;;;29.11;35.34;94194.88;4984888;28;20041;-76
2021/08/09 06:23:30;;;;;;;9.77;4.45;;;;;;;29.25;37.10;94191.28;4988409;28;20077;-75
2021/08/09 06:25:56;;;;;;;9.65;4.75;;;;;;;29.33;35.92;94186.59;4987853;28;20873;-75
2021/08/09 06:28:22;;;;;;;8.85;4.70;;;;;;;28.97;35.85;94159.56;4988631;28;20029;-75
2021/08/09 06:30:48;;;;;;;10.95;4.30;;;;;;;29.21;34.67;94166.03;4985312;28;20121;-75
2021/08/09 06:33:14;;;;;;;8.48;4.35;;;;;;;29.53;35.36;94196.59;4986633;28;20052;-75
2021/08/09 06:35:39;;;;;;;8.05;4.57;;;;;;;29.24;34.72;94195.19;4983049;28;20041;-75
2021/08/09 06:38:06;;;;;;;7.00;4.10;;;;;;;29.31;35.48;94192.47;4987712;28;20037;-75
2021/08/09 06:40:33;;;;;;;11.48;5.10;;;;;;;29.44;35.22;94193.53;4986400;28;20026;-78
2021/08/09 06:42:59;;;;;;;9.32;4.22;;;;;;;29.33;34.52;94192.03;4986103;28;20070;-75
2021/08/09 06:45:25;;;;;;;13.82;4.97;;;;;;;29.43;34.82;94185.75;4985553;28;20409;-75
2021/08/09 06:47:50;;;;;;;8.57;4.65;;;;;;;29.42;34.49;94181.50;4988176;28;20052;-76
2021/08/09 06:50:16;;;;;;;10.35;4.35;;;;;;;29.33;34.66;94156.66;4986210;28;20120;-75
2021/08/09 06:52:43;;;;;;;8.73;4.50;;;;;;;29.36;34.92;94162.09;4988439;28;20500;-76
2021/08/09 06:55:09;;;;;;;6.68;4.53;;;;;;;29.71;35.25;94191.78;4986356;28;20038;-75
2021/08/09 06:57:34;;;;;;;15.25;4.45;;;;;;;29.87;34.51;94199.47;4986452;28;20038;-76
2021/08/09 06:59:59;;;;;;;15.05;4.68;;;;;;;29.96;33.80;94199.78;4987816;28;20129;-76
2021/08/09 07:02:25;;;;;;;10.27;3.65;;;;;;;30.00;35.26;94203.28;4986591;28;20065;-75
2021/08/09 07:04:51;;;;;;;10.40;4.20;;;;;;;29.98;33.85;94192.00;4987051;28;20085;-75
2021/08/09 07:07:16;;;;;;;6.50;4.55;;;;;;;30.19;34.56;94201.97;4985294;28;20528;-75
2021/08/09 07:09:42;;;;;;;6.45;5.15;;;;;;;30.08;34.16;94201.28;4983471;28;20042;-77
2021/08/09 07:12:09;;;;;;;9.25;4.80;;;;;;;30.02;33.89;94200.16;4983286;28;20047;-76
2021/08/09 07:15:38;;;;;;;9.02;4.57;;;;;;;26.23;34.13;94194.53;5018781;27;73751;-75
2021/08/09 07:18:04;;;;;;;11.23;4.07;;;;;;;26.39;35.29;94193.97;5008144;28;20038;-75
2021/08/09 07:20:29;;;;;;;10.60;4.57;;;;;;;26.46;34.77;94186.53;5012543;28;20038;-76
2021/08/09 07:22:54;;;;;;;9.75;5.10;;;;;;;26.54;33.57;94187.25;4988271;28;93614;-75
2021/08/09 07:25:20;;;;;;;11.88;4.63;;;;;;;26.50;33.26;94181.78;5011785;28;20537;-76
2021/08/09 07:27:45;;;;;;;13.82;4.13;;;;;;;26.81;33.62;94201.72;5013523;28;20072;-75
2021/08/09 07:30:14;;;;;;;7.90;4.70;;;;;;;26.89;32.84;94197.72;5012207;28;20042;-75
2021/08/09 07:32:40;;;;;;;6.55;4.45;;;;;;;26.88;32.79;94204.41;5009828;28;20160;-75
2021/08/09 07:35:06;;;;;;;7.22;4.18;;;;;;;26.97;32.71;94193.75;5008564;28;20438;-75
2021/08/09 07:37:32;;;;;;;14.93;4.75;;;;;;;27.08;32.55;94203.81;5010598;28;20029;-75
2021/08/09 07:39:58;;;;;;;9.43;4.93;;;;;;;27.08;31.92;94201.84;5009377;28;20381;-76
2021/08/09 07:42:24;;;;;;;5.03;3.90;;;;;;;27.14;33.24;94202.91;5012669;28;20042;-76
2021/08/09 07:44:50;;;;;;;11.50;4.65;;;;;;;27.20;32.75;94195.81;5014525;28;20033;-77
2021/08/09 07:47:16;;;;;;;9.15;5.05;;;;;;;27.14;32.35;94208.38;5011014;28;20038;-76
2021/08/09 07:49:41;;;;;;;15.30;5.78;;;;;;;27.12;31.96;94210.75;5012743;28;20021;-76
2021/08/09 07:52:07;;;;;;;12.88;5.38;;;;;;;27.18;32.68;94209.09;5011607;28;20087;-77
2021/08/09 07:54:32;;;;;;;13.85;4.63;;;;;;;27.04;32.64;94203.03;5009868;28;20046;-76
2021/08/09 07:57:01;;;;;;;9.98;5.00;;;;;;;27.05;32.34;94213.56;5012045;28;20037;-76
2021/08/09 07:59:27;;;;;;;12.60;4.80;;;;;;;27.24;33.34;94218.41;5016270;28;20496;-76
2021/08/09 08:01:53;;;;;;;8.45;4.30;;;;;;;27.35;32.46;94212.78;5010503;28;20075;-76
2021/08/09 08:04:18;;;;;;;10.75;4.80;;;;;;;27.32;32.25;94203.47;5009688;28;20675;-76
2021/08/09 08:06:43;;;;;;;12.52;4.65;;;;;;;27.48;31.67;94216.50;5007989;28;20046;-76
2021/08/09 08:09:09;;;;;;;11.07;5.55;;;;;;;27.56;31.40;94211.75;5012713;28;23053;-76
2021/08/09 08:11:35;;;;;;;9.88;4.10;;;;;;;27.64;31.61;94208.50;5007687;28;20061;-76
2021/08/09 08:14:00;;;;;;;9.13;4.65;;;;;;;27.67;31.44;94201.44;5013235;28;20133;-76
2021/08/09 08:16:26;;;;;;;7.75;5.13;;;;;;;27.85;30.45;94215.63;5009671;28;20033;-76
2021/08/09 08:18:52;;;;;;;9.57;5.07;;;;;;;27.80;30.59;94207.91;5012097;28;20804;-76
2021/08/09 08:21:17;;;;;;;10.95;4.60;;;;;;;28.01;31.04;94221.22;5009857;28;20552;-76
2021/08/09 08:23:42;;;;;;;11.23;5.30;;;;;;;28.00;30.34;94213.44;5007830;28;20061;-76
2021/08/09 08:26:08;;;;;;;9.38;4.78;;;;;;;27.98;31.22;94216.59;5000035;28;20176;-76
2021/08/09 08:28:36;;;;;;;11.10;5.22;;;;;;;28.16;29.97;94217.09;4999305;28;20025;-76
2021/08/09 08:31:02;;;;;;;11.45;4.95;;;;;;;28.21;29.99;94218.56;4998617;28;20065;-76
2021/08/09 08:33:27;;;;;;;13.40;5.50;;;;;;;28.06;30.38;94196.13;4994343;28;20160;-76
2021/08/09 08:35:52;;;;;;;11.48;5.57;;;;;;;28.31;30.58;94211.38;4995766;28;20049;-77
2021/08/09 08:38:18;;;;;;;6.15;5.50;;;;;;;28.32;29.74;94202.78;4994698;28;20144;-77
2021/08/09 08:40:49;;;;;;;10.95;5.70;;;;;;;28.44;29.89;94218.59;4997319;28;20049;-76
2021/08/09 08:43:33;;;;;;;10.00;6.22;;;;;;;28.39;29.42;94218.28;4994122;28;20033;-76
2021/08/09 08:46:00;;;;;;;9.95;6.85;;;;;;;28.40;30.14;94212.38;4997119;28;20112;-76
2021/08/09 08:48:28;;;;;;;8.68;5.88;;;;;;;28.43;29.79;94208.06;4997639;28;20037;-77
2021/08/09 08:50:56;;;;;;;8.60;5.18;;;;;;;28.20;30.64;94178.78;4998939;28;20054;-76
2021/08/09 08:53:21;;;;;;;15.60;6.90;;;;;;;28.56;30.04;94217.19;4993015;28;20042;-76
2021/08/09 08:55:47;;;;;;;9.90;5.57;;;;;;;28.54;29.25;94214.91;4998789;28;20052;-75
2021/08/09 08:58:12;;;;;;;10.07;6.22;;;;;;;28.57;29.96;94221.47;4997529;28;20056;-76
2021/08/09 09:00:39;;;;;;;8.25;5.80;;;;;;;28.62;29.19;94215.53;4994955;28;20053;-75
2021/08/09 09:03:16;;;;;;;9.65;6.05;;;;;;;28.64;29.45;94207.72;4996768;28;20042;-76
2021/08/09 09:06:03;;;;;;;11.38;5.97;;;;;;;28.72;29.61;94206.38;4996268;28;20042;-76
2021/08/09 09:08:48;;;;;;;7.50;6.03;;;;;;;28.69;28.70;94209.19;5011164;28;20315;-76
2021/08/09 09:11:33;;;;;;;9.85;6.20;;;;;;;28.76;29.38;94209.03;4998652;28;20076;-76
2021/08/09 09:14:04;;;;;;;8.98;6.88;;;;;;;28.70;28.57;94206.00;4998592;28;20516;-75
2021/08/09 09:16:44;;;;;;;11.02;6.47;;;;;;;28.87;28.81;94207.66;4999790;28;20041;-76
2021/08/09 09:19:27;;;;;;;10.20;6.60;;;;;;;28.86;27.86;94203.38;4996541;28;20563;-76
2021/08/09 09:21:53;;;;;;;10.73;6.80;;;;;;;29.00;28.74;94208.56;4995383;28;20041;-76
2021/08/09 09:24:20;;;;;;;9.00;6.40;;;;;;;29.17;29.26;94201.22;4994684;28;20602;-75
2021/08/09 09:26:53;;;;;;;8.52;6.72;;;;;;;29.19;27.47;94203.50;4996370;28;20141;-76
2021/08/09 09:29:18;;;;;;;10.52;6.53;;;;;;;29.31;27.68;94187.22;4997661;28;20042;-75
2021/08/09 09:31:46;;;;;;;8.68;6.35;;;;;;;29.34;27.98;94182.84;4996313;28;20536;-75
2021/08/09 09:34:15;;;;;;;11.07;7.15;;;;;;;29.41;28.23;94191.69;4996251;28;20027;-76
2021/08/09 09:36:55;;;;;;;8.45;6.47;;;;;;;29.41;28.47;94188.19;5000620;28;21074;-76
2021/08/09 09:39:43;;;;;;;12.73;6.95;;;;;;;29.45;28.33;94181.44;4999349;28;20064;-76
2021/08/09 09:42:11;;;;;;;7.25;6.53;;;;;;;29.68;28.51;94197.00;4998608;28;20041;-75
2021/08/09 09:44:38;;;;;;;13.35;8.05;;;;;;;29.80;28.67;94182.63;4995589;28;20035;-76
2021/08/09 09:47:22;;;;;;;8.52;6.68;;;;;;;29.92;27.71;94192.13;4994531;28;20091;-76
2021/08/09 09:49:49;;;;;;;10.13;7.30;;;;;;;29.92;28.14;94181.94;4995693;28;20572;-76
2021/08/09 09:52:47;;;;;;;12.82;6.68;;;;;;;30.05;27.56;94178.50;4999778;28;20485;-76
2021/08/09 09:55:14;;;;;;;20.58;8.80;;;;;;;30.13;26.80;94174.38;4994308;28;20060;-77
2021/08/09 09:57:41;;;;;;;12.65;7.07;;;;;;;30.08;26.41;94174.91;4996345;28;20038;-76
2021/08/09 10:00:11;;;;;;;9.60;6.32;;;;;;;30.10;27.03;94175.25;4997464;28;20037;-76
2021/08/09 10:02:38;;;;;;;8.50;6.10;;;;;;;30.15;27.13;94174.75;4997049;28;20038;-76
2021/08/09 10:05:04;;;;;;;10.35;6.30;;;;;;;30.13;27.42;94177.91;4992981;28;20069;-75
2021/08/09 10:07:32;;;;;;;9.27;6.53;;;;;;;29.94;26.36;94137.63;4999702;28;20560;-76
2021/08/09 10:09:59;;;;;;;11.57;6.80;;;;;;;30.05;26.46;94171.06;4995956;28;20071;-76
2021/08/09 10:12:28;;;;;;;11.52;6.78;;;;;;;30.06;25.60;94152.63;4991842;28;21693;-76
2021/08/09 10:14:54;;;;;;;9.50;6.88;;;;;;;30.06;26.24;94149.91;4995186;28;20042;-76
2021/08/09 10:17:24;;;;;;;12.85;6.22;;;;;;;30.23;26.83;94148.69;4996943;28;20532;-76
2021/08/09 10:19:52;;;;;;;10.02;6.55;;;;;;;30.42;25.78;94155.25;4994516;28;20645;-76
2021/08/09 10:22:21;;;;;;;11.02;6.50;;;;;;;30.43;25.59;94160.31;4996328;28;20029;-76
2021/08/09 10:24:50;;;;;;;10.85;5.88;;;;;;;30.43;24.86;94146.59;4991491;28;20563;-75
2021/08/09 10:27:17;;;;;;;10.85;6.10;;;;;;;30.43;25.19;94152.09;4991752;28;20707;-75
2021/08/09 10:30:00;;;;;;;10.85;5.97;;;;;;;30.60;25.39;94163.81;4994437;28;20704;-76
2021/08/09 10:32:26;;;;;;;8.40;5.97;;;;;;;30.58;25.59;94156.00;4988336;28;20588;-76
2021/08/09 10:34:52;;;;;;;11.80;5.70;;;;;;;30.62;25.08;94169.63;4993949;28;20026;-76
2021/08/09 10:37:20;;;;;;;8.75;6.47;;;;;;;30.66;25.53;94165.56;4996231;28;20056;-77
2021/08/09 10:39:49;;;;;;;9.38;6.70;;;;;;;30.80;25.22;94166.44;4993247;28;20038;-76
2021/08/09 10:42:43;;;;;;;9.57;6.00;;;;;;;30.85;24.75;94158.41;4995410;28;20042;-76
2021/08/09 10:45:10;;;;;;;16.52;6.95;;;;;;;30.78;24.83;94167.63;4997629;28;20057;-76
2021/08/09 10:47:48;;;;;;;9.75;6.57;;;;;;;30.89;26.02;94159.09;4997477;28;20212;-76
2021/08/09 10:50:26;;;;;;;9.50;6.47;;;;;;;30.93;24.85;94161.75;4991142;28;20034;-76
2021/08/09 10:52:53;;;;;;;7.07;6.30;;;;;;;30.99;24.69;94154.50;4977633;28;20037;-76
2021/08/09 10:55:30;;;;;;;9.35;6.68;;;;;;;30.98;24.85;94153.75;4996333;28;20394;-76
2021/08/09 10:58:05;;;;;;;12.77;6.00;;;;;;;31.09;24.91;94158.94;4993764;28;20121;-76
2021/08/09 11:00:40;;;;;;;10.35;7.32;;;;;;;31.12;25.29;94158.03;4996269;28;20041;-75
2021/08/09 11:03:05;;;;;;;;;;;;;;;31.24;25.03;94153.81;4996028;28;20103;-76
2021/08/09 11:05:31;;;;;;;12.60;6.78;;;;;;;31.16;24.02;94158.72;4983148;28;20428;-75
2021/08/09 11:08:15;;;;;;;11.52;7.07;;;;;;;31.14;24.75;94150.13;4967212;28;20126;-75
2021/08/09 11:11:02;;;;;;;10.30;6.10;;;;;;;31.06;24.61;94159.78;4997085;28;20112;-76
2021/08/09 11:13:50;;;;;;;9.75;6.13;;;;;;;30.92;24.87;94143.72;4991461;28;20161;-77
2021/08/09 11:16:32;;;;;;;13.30;7.30;;;;;;;31.15;24.27;94148.91;4998249;28;20531;-76
2021/08/09 11:18:58;;;;;;;9.55;5.63;;;;;;;31.14;24.13;94136.38;4993563;28;20042;-76
2021/08/09 11:21:25;;;;;;;11.88;6.15;;;;;;;31.29;23.95;94134.78;4993668;28;20069;-76
2021/08/09 11:23:51;;;;;;;9.45;6.05;;;;;;;31.31;23.58;94148.88;4998042;28;20579;-77
2021/08/09 11:26:23;;;;;;;9.27;6.20;;;;;;;31.41;24.10;94147.78;4993437;28;20040;-76
2021/08/09 11:29:08;;;;;;;12.77;5.72;;;;;;;31.52;23.19;94156.47;4997009;28;20029;-77
2021/08/09 11:31:47;;;;;;;10.60;6.13;;;;;;;31.45;23.49;94148.44;4990195;28;20033;-76
2021/08/09 11:34:13;;;;;;;11.18;5.43;;;;;;;31.43;23.60;94139.84;4991242;28;20145;-76
2021/08/09 11:36:39;;;;;;;9.95;5.85;;;;;;;31.46;23.44;94149.97;4997258;28;20409;-76